Virgile Foucault

Virgile Foucault

Statistiques 2026

  • Courses courues : 188
  • Nb de victoires : 6
  • Nb de places : 28
  • Écart gagnant : 54
  • Réussite à la gagne : 3%
  • Réussite à la place : 15%
Musique : 0a 7a 7a 0a Da Da 3a 4a 3a 3a 7a 2a Da 9a 8a Da 0a Da
DateRangCatégorieAlloc.Dist.HippodromeChevalRed. KmSpé.
17/02/17 D Trot 19 000€ 2 750m Toulouse Bleuet des Bois Attelé
25/02/17 2 Trot 21 000€ 2 350m Toulouse Bleuet des Bois 1'16"1 Attelé
26/02/17 9 Trot 13 000€ 2 875m Hyeres Be Happy 1'18"3 Attelé
28/02/17 3 Trot 16 000€ 2 925m Cagnes Sur Mer Bonus de Bertrange 1'17"8 Attelé lire

Principal animateur, a longtemps fait figure de lauréat, avant de s'incliner dans la phase finale.

05/03/17 4 Mixte 12 000€ 2 050m Hyeres Elka du Puy 1'19"4 Attelé
10/03/17 D Trot 25 000€ 1 609m Cagnes Sur Mer Be Happy Attelé lire

Est parti au galop.

12/03/17 0 Trot 34 000€ 2 925m Cagnes Sur Mer Viking Ludois Attelé lire

N'est jamais venu en bonne place.

14/03/17 8 Trot 26 000€ 2 950m Cagnes Sur Mer Urac de Bougy 1'16"3 Attelé
14/03/17 0 Trot 26 000€ 2 950m Cagnes Sur Mer Axelle d'Idef Attelé
14/03/17 D Trot 17 000€ 2 925m Cagnes Sur Mer Expresso Ben Max Attelé
15/03/17 D Trot 12 000€ 2 425m Marseille Borely Dulcet Ranais Attelé
15/03/17 8 Trot 14 000€ 2 300m Marseille Borely Celebrity de Ginai 1'16"2 Attelé
15/03/17 D Trot 12 000€ 2 400m Marseille Borely Draga Attelé
15/03/17 5 Trot 12 000€ 2 400m Marseille Borely Devise Dairpet 1'20"1 Attelé
21/03/17 6 Trot 21 000€ 2 850m Hyeres Bleuet des Bois 1'16"1 Attelé
22/03/17 D Trot 12 000€ 2 400m Marseille Borely Expresso Ben Max Attelé
26/03/17 4 Trot 11 000€ 2 650m Carpentras Devise Dairpet 1'27"3 Attelé
26/03/17 D Trot 32 000€ 2 650m Carpentras Braveheart Jiel Attelé
26/03/17 7 Trot 15 000€ 2 650m Carpentras Codi Doa 1'27"2 Attelé
29/03/17 7 Trot 30 000€ 3 000m Marseille Borely Vossacre 1'15"9 Attelé lire

Principal animateur, a très nettement marqué le pas dans la phase finale.

31/03/17 D Trot 21 000€ 2 650m Marseille Vivaux Devise Dairpet Attelé
31/03/17 8 Trot 20 000€ 2 650m Marseille Vivaux Elka du Puy 1'21"8 Attelé
02/04/17 8 Trot 45 000€ 2 775m Nimes Urbec Dry 1'22"7 Attelé
02/04/17 2 Trot 14 000€ 2 775m Nimes Bleuet des Bois 1'22"8 Attelé
05/04/17 D Trot 20 000€ 2 650m Marseille Vivaux Elka du Puy Attelé
07/04/17 4 Mixte 28 000€ 2 850m Lyon Parilly Vivaldi du Vauchel 1'16"4 Attelé
09/04/17 7 Trot 12 000€ 2 650m Carpentras Elka du Puy 1'27"8 Attelé
09/04/17 2 Trot 11 000€ 2 650m Carpentras Devise Dairpet 1'24"7 Attelé
12/04/17 5 Trot 17 000€ 3 025m Marseille Borely Bleuet des Bois 1'15"8 Attelé
16/04/17 3 Mixte 28 000€ 2 850m Lyon Parilly Vas Y Donc Paris Attelé
30/04/17 2 Trot 24 000€ 2 650m Oraison Be Happy 1'20"8 Attelé
30/04/17 0 Trot 34 000€ 2 650m Oraison Vivaldi du Vauchel Attelé
30/04/17 A Trot 13 000€ 2 650m Oraison Devise Dairpet Attelé
07/05/17 5 Trot 11 000€ 2 025m Avignon Elka du Puy 1'26"8 Attelé
07/05/17 0 Trot 18 000€ 2 675m Avignon Be Happy Attelé
09/05/17 D Trot 30 000€ 3 000m Marseille Borely Vossacre Attelé
14/05/17 7 Mixte 12 000€ 2 100m Lyon Parilly Et Cetera 1'19"7 Attelé
17/05/17 1 Trot 19 000€ 2 300m Marseille Borely Aigle du Clos 1'15"1 Attelé
21/05/17 4 Trot 14 000€ 2 850m Lyon Parilly Et Cetera 1'19"9 Attelé
22/05/17 D Trot 13 000€ 2 300m Salon De Provence Diva du Bel Hoste Attelé
22/05/17 0 Trot 20 000€ 2 950m Salon De Provence Brick Attelé
22/05/17 D Trot 23 000€ 2 950m Salon De Provence Vent de Beylev Attelé
25/05/17 2 Trot 12 000€ 2 025m Avignon Elka du Puy 1'23"9 Attelé
25/05/17 5 Trot 15 000€ 2 650m Avignon Claude de Bry 1'20"8 Attelé
28/05/17 6 Mixte 17 000€ 3 500m Biguglia Urago de Carsi 1'21"0 Attelé
28/05/17 6 Mixte 16 000€ 2 425m Biguglia Axius du Fosse 1'22"3 Attelé
04/06/17 7 Trot 12 000€ 2 675m Avignon Elka du Puy 1'23"5 Attelé
04/06/17 0 Trot 13 000€ 2 650m Avignon Diva du Bel Hoste Attelé
04/06/17 D Trot 18 000€ 2 650m Avignon Bad Attelé
08/06/17 2 Trot 27 000€ 3 000m Marseille Borely Vivaldi du Vauchel 1'16"9 Attelé